Daisy, Georgia
Current Conditions -  °F | °C
As of 4:15 PM on Thursday 25 Dec 2014 (Local Time) from KCWV Reporting Station
Clear Clear  
Wind Chill: 59°   Ceiling: Unl
Heat Index: 59°   Visibility: 10mi
Dew Point: 41°   Wind: 6mph
Humidity: 51%   Direction: 310°NW
Pressure: 30.16"   Gusts: NA
Location:  32.15°N, 81.83°W
Report Text: KCWV 252115Z AUTO 31005KT 10SM CLR 15/05 A3016 RMK AO2
Loading
Personal Weather Stations






























Interactive Weather Map New forecast layout! Learn more

10-Day Weather Forecast

Advertisements
Track Severe Weather on mobile